• Join FlightAware (Why Join?)
  • Login
  • US Flag 
03:38PM EDT


 

Airport Tracker/Info


-or-


 

Live Flight TrackerFlight Track Log ✈ UAL1494 ✈ 09-Oct-2013 ✈ KSEA - KSFO

Flight Track Log - Related Links

Times and Time Zones

All times are in EDT time to prevent confusion due to time zone crossing. See the UAL1494 flight status page for this flight to view local times or setup timezone preferences in your user account.

Time Position Orientation Groundspeed Altitude Reporting Facility
EDT Latitude Longitude Course Direction KTS MPH feet Rate Location/Type
12:42PM 47.4333 -122.3114 176° South 164 189 1,100  Level Seattle Center
12:42PM 47.3878 -122.3119 180° South 194 223 3,300 2,760 Climbing Seattle Center
12:43PM 47.3194 -122.3467 199° South 276 318 6,500 1,860 Climbing Seattle Center
12:44PM 47.3233 -122.4614 273° West 287 330 7,100 1,860 Climbing Seattle Center
12:45PM 46.9244 -122.3157 217° Southwest  Level Estimated
12:46PM 46.7930 -122.3167 219° Southwest  Level Estimated
12:46PM 47.3303 -122.5756 275° West 286 329 10,400  Level Seattle Center
12:47PM 46.6616 -122.3177 176° South  Level Estimated
12:47PM 47.3081 -122.6958 255° West 308 354 13,300  Level Seattle Center
12:48PM 47.2825 -122.8306 254° West 339 390 16,600 3,000 Climbing Seattle Center
12:49PM 47.2528 -122.9856 254° West 359 413 19,500 2,580 Climbing Seattle Center
12:50PM 47.1819 -123.1078 230° Southwest 391 450 21,900 2,220 Climbing Seattle Center
12:51PM 47.0847 -123.2136 217° Southwest 419 482 24,100 2,160 Climbing Seattle Center
12:52PM 46.9831 -123.3236 216° Southwest 438 504 26,300 2,340 Climbing Seattle Center
12:53PM 46.8664 -123.3992 204° Southwest 457 526 28,900 2,280 Climbing Seattle Center
12:54PM 46.7394 -123.3975 179° South 461 531 31,000 1,020 Climbing Seattle Center
12:55PM 46.6125 -123.3956 179° South 459 528 31,000  Level Seattle Center
12:56PM 46.4850 -123.3928 179° South 460 529 31,000 -60 Level Seattle Center
12:57PM 46.3558 -123.3858 178° South 467 537 30,900 -60 Descending Seattle Center
12:58PM 46.2275 -123.3814 179° South 464 534 30,900  Level Seattle Center
12:59PM 46.0997 -123.3789 179° South 463 533 30,900  Level Seattle Center
01:00PM 45.9461 -123.3733 179° South 463 533 30,900  Level Seattle Center
01:01PM 45.8172 -123.3706 179° South 464 534 30,900  Level Seattle Center
01:02PM 45.6886 -123.3644 178° South 465 535 31,000  Climbing Seattle Center
01:03PM 45.5594 -123.3603 179° South 465 535 30,900  Descending Seattle Center
01:04PM 45.4303 -123.3575 179° South 465 535 31,000  Climbing Seattle Center
01:05PM 45.3011 -123.3533 179° South 464 534 30,900 -60 Descending Seattle Center
01:06PM 45.1711 -123.3486 179° South 466 536 30,900  Level Seattle Center
01:07PM 45.0389 -123.3436 178° South 468 539 31,000  Climbing Seattle Center
01:08PM 44.9050 -123.3392 179° South 472 543 31,000  Level Seattle Center
01:09PM 44.7714 -123.3361 179° South 471 542 31,000  Level Seattle Center
01:10PM 44.6403 -123.3319 179° South 468 539 31,000  Level Seattle Center
01:11PM 44.5083 -123.3281 179° South 471 542 31,000  Level Seattle Center
01:12PM 44.3775 -123.3239 179° South 471 542 31,000  Level Seattle Center
01:13PM 44.2442 -123.3164 178° South 477 549 31,000  Level Seattle Center
01:14PM 44.1131 -123.3131 179° South 474 545 31,000  Level Seattle Center
01:15PM 43.9719 -123.3072 178° South 475 547 31,000  Level Seattle Center
01:16PM 43.8408 -123.3014 178° South 473 544 31,000  Level Seattle Center
01:17PM 43.7081 -123.2981 179° South 476 548 31,000  Level Seattle Center
01:18PM 43.5492 -123.2908 178° South 477 549 31,000  Level Seattle Center
01:19PM 43.4161 -123.2858 178° South 478 550 31,000  Level Seattle Center
01:20PM 43.2828 -123.2806 178° South 478 550 31,000  Level Seattle Center
01:21PM 43.1500 -123.2750 178° South 479 551 31,000  Level Seattle Center
01:22PM 43.0164 -123.2689 178° South 480 552 31,000  Level Seattle Center
01:23PM 42.8819 -123.2650 179° South 482 555 31,000  Level Seattle Center
01:24PM 42.7461 -123.2583 178° South 487 560 31,000  Level Seattle Center
01:25PM 42.6017 -123.2528 178° South 481 554 31,000  Level Seattle Center
01:26PM 42.4667 -123.2489 179° South 485 558 31,000  Level Seattle Center
01:27PM 42.3317 -123.2425 178° South 487 560 31,000  Level Seattle Center
01:28PM 42.1969 -123.2386 179° South 487 560 31,000  Level Seattle Center
01:29PM 42.0608 -123.2328 178° South 490 564 31,000  Level Seattle Center
01:30PM 41.9258 -123.2281 179° South 488 562 31,000  Level Seattle Center
01:31PM 41.7883 -123.2228 178° South 495 570 31,000  Level Seattle Center
01:32PM 41.6244 -123.2169 178° South 495 570 31,000  Level Seattle Center
01:33PM 41.5442 -123.2167 180° South 496 571 31,000  Level Oakland Center
01:34PM 41.4064 -123.2122 179° South 497 572 31,000  Level Oakland Center
01:35PM 41.2456 -123.2075 179° South 499 574 31,000 -60 Level Oakland Center
01:36PM 41.1067 -123.2033 179° South 500 575 30,900  Descending Oakland Center
01:37PM 40.9669 -123.2003 179° South 500 575 31,000  Climbing Oakland Center
01:38PM 40.8267 -123.1967 179° South 503 579 31,000 -60 Level Oakland Center
01:39PM 40.6853 -123.1944 179° South 506 582 30,900  Descending Oakland Center
01:40PM 40.5444 -123.1903 179° South 505 581 31,000  Climbing Oakland Center
01:41PM 40.4031 -123.1875 179° South 505 581 30,900 -60 Descending Oakland Center
01:42PM 40.2617 -123.1839 179° South 505 581 30,900  Level Oakland Center
01:43PM 40.1186 -123.1797 179° South 509 586 31,000  Climbing Oakland Center
01:44PM 39.9469 -123.1772 179° South 512 589 30,900  Descending Oakland Center
01:45PM 39.8036 -123.1706 178° South 514 592 31,000  Climbing Oakland Center
01:46PM 39.6553 -123.1614 177° South 513 590 31,000  Level Oakland Center
01:47PM 39.5139 -123.1536 178° South 511 588 31,000 -60 Level Oakland Center
01:48PM 39.3617 -123.1478 178° South 519 597 30,900 -540 Descending Oakland Center
01:49PM 39.2178 -123.1406 178° South 517 595 29,900 -1,020 Descending Oakland Center
01:51PM 39.0719 -123.1314 177° South 523 602 28,900 -960 Descending Oakland Center
01:52PM 38.9319 -123.0922 168° South 516 594 28,000 -900 Descending Oakland Center
01:53PM 38.7914 -123.0547 168° South 517 595 27,100 -1,140 Descending Oakland Center
01:54PM 38.6492 -123.0161 168° South 522 601 25,700 -2,040 Descending Oakland Center
01:55PM 38.5081 -122.9797 169° South 520 598 23,000 -2,580 Descending Oakland Center
01:56PM 38.3394 -122.9372 169° South 513 590 20,500 -1,860 Descending Oakland Center
01:57PM 38.2147 -122.9486 184° South 461 531 19,300 -1,560 Descending Oakland Center
01:58PM 38.0992 -122.9631 186° South 431 496 17,400 -1,680 Descending Oakland Center
01:59PM 37.9889 -122.9722 184° South 409 471 15,900 -1,440 Descending Oakland Center
02:00PM 37.9250 -122.8850 133° Southeast 350 403 14,500 -1,800 Descending Oakland Center
02:01PM 37.8883 -122.7819 114° Southeast 328 377 12,300 -1,740 Descending Oakland Center
02:02PM 37.8214 -122.6808 130° Southeast 319 367 11,000 -660 Descending Oakland Center
02:03PM 37.7761 -122.6100 129° Southeast 272 313 11,000  Level Oakland Center
02:04PM 37.7336 -122.5467 130° Southeast 245 282 11,000  Level Oakland Center
02:05PM 37.6917 -122.4831 130° Southeast 239 275 11,000  Level Oakland Center
02:06PM 37.6497 -122.4194 130° Southeast 238 274 11,000  Level Oakland Center
02:07PM 37.6047 -122.3611 134° Southeast 235 270 11,000 -600 Level Oakland Center
02:08PM 37.5400 -122.3297 159° South 246 283 9,800 -1,200 Descending Oakland Center
02:09PM 37.4636 -122.2917 158° South 245 282 8,600 -1,140 Descending Oakland Center
02:10PM 37.4131 -122.2425 142° Southeast 247 284 7,500 -1,140 Descending Oakland Center
02:11PM 37.4211 -122.1697 82° East 220 253 6,300 -1,320 Descending Oakland Center
02:12PM 37.4692 -122.1294 34° Northeast 212 244 4,900 -1,080 Descending Oakland Center
02:13PM 37.5153 -122.1494 341° North 210 242 4,100 -840 Descending Oakland Center
02:14PM 37.5467 -122.2092 304° West 208 239 3,300 -900 Descending Oakland Center
02:15PM 37.5722 -122.2678 299° West 201 231 2,300 -1,140 Descending Oakland Center
02:16PM 37.5914 -122.3133 298° West 166 191 1,000 -1,080 Descending Oakland Center
02:17PM 37.6125 -122.3622 299° West 155 178 200 -840 Descending Oakland Center